createdAt,value
2018-02-18T00:00:17.763Z,12.98
2018-02-18T00:02:45.496Z,13.55
2018-02-18T00:05:13.264Z,12.30
2018-02-18T00:07:41.961Z,13.07
2018-02-18T00:10:09.761Z,14.80
2018-02-18T00:12:37.529Z,11.90
2018-02-18T00:15:10.752Z,12.27
2018-02-18T00:17:38.511Z,13.55
2018-02-18T00:20:06.256Z,11.90
2018-02-18T00:22:33.985Z,12.45
2018-02-18T00:25:01.728Z,11.82
2018-02-18T00:27:29.453Z,12.93
2018-02-18T00:29:57.244Z,13.80
2018-02-18T00:32:24.983Z,12.90
2018-02-18T00:34:52.823Z,12.37
2018-02-18T00:37:20.542Z,12.43
2018-02-18T00:39:48.284Z,12.40
2018-02-18T00:42:16.027Z,13.10
2018-02-18T00:44:43.787Z,12.35
2018-02-18T00:47:11.529Z,11.48
2018-02-18T00:49:39.307Z,13.27
2018-02-18T00:52:07.083Z,13.05
2018-02-18T00:54:34.849Z,12.18
2018-02-18T00:57:02.575Z,12.48
2018-02-18T00:59:30.356Z,10.95
2018-02-18T01:01:58.094Z,12.68
2018-02-18T01:04:25.814Z,10.88
2018-02-18T01:06:53.584Z,10.55
2018-02-18T01:09:21.354Z,11.82
2018-02-18T01:11:49.128Z,11.00
2018-02-18T01:14:16.843Z,11.60
2018-02-18T01:16:44.593Z,11.93
2018-02-18T01:19:12.328Z,10.88
2018-02-18T01:21:40.068Z,10.85
2018-02-18T01:24:07.834Z,10.48
2018-02-18T01:26:35.567Z,10.70
2018-02-18T01:29:03.351Z,10.43
2018-02-18T01:31:31.102Z,9.85
2018-02-18T01:33:58.800Z,11.02
2018-02-18T01:36:27.374Z,9.68
2018-02-18T01:38:55.150Z,11.82
2018-02-18T01:41:23.834Z,10.95
2018-02-18T01:43:51.667Z,10.23
2018-02-18T01:46:19.394Z,9.77
2018-02-18T01:48:47.237Z,11.60
2018-02-18T01:51:15.051Z,11.57
2018-02-18T01:53:42.787Z,9.20
2018-02-18T01:56:10.546Z,10.23
2018-02-18T01:58:38.340Z,10.27
2018-02-18T02:01:06.109Z,11.45
2018-02-18T02:03:33.937Z,11.30
2018-02-18T02:06:01.715Z,10.27
2018-02-18T02:08:29.509Z,10.30
2018-02-18T02:10:57.264Z,11.38
2018-02-18T02:13:25.028Z,10.70
2018-02-18T02:15:52.841Z,10.32
2018-02-18T02:18:20.648Z,9.90
2018-02-18T02:20:48.409Z,9.75
2018-02-18T02:23:16.221Z,10.75
2018-02-18T02:25:43.956Z,9.68
2018-02-18T02:28:11.765Z,10.52
2018-02-18T02:30:39.482Z,10.63
2018-02-18T02:33:07.281Z,9.68
2018-02-18T02:35:35.062Z,12.68
2018-02-18T02:38:02.819Z,11.30
2018-02-18T02:40:30.541Z,10.23
2018-02-18T02:42:58.297Z,9.10
2018-02-18T02:45:26.042Z,10.88
2018-02-18T02:47:53.833Z,10.57
2018-02-18T02:50:21.643Z,11.20
2018-02-18T02:52:49.422Z,10.35
2018-02-18T02:55:17.180Z,9.25
2018-02-18T02:57:44.888Z,10.13
2018-02-18T03:00:12.655Z,11.85
2018-02-18T03:02:40.499Z,10.70
2018-02-18T03:05:08.298Z,9.70
2018-02-18T03:07:36.115Z,9.80
2018-02-18T03:10:03.881Z,11.18
2018-02-18T03:12:31.685Z,10.55
2018-02-18T03:14:59.518Z,10.23
2018-02-18T03:17:27.431Z,8.70
2018-02-18T03:19:55.283Z,9.75
2018-02-18T03:22:23.103Z,10.55
2018-02-18T03:24:50.861Z,10.48
2018-02-18T03:27:18.702Z,10.65
2018-02-18T03:29:46.630Z,10.88
2018-02-18T03:32:14.640Z,10.90
2018-02-18T03:34:42.514Z,10.98
2018-02-18T03:37:10.319Z,9.82
2018-02-18T03:39:38.168Z,10.13
2018-02-18T03:42:05.963Z,10.95
2018-02-18T03:44:33.793Z,11.60
2018-02-18T03:47:01.556Z,9.15
2018-02-18T03:49:29.358Z,11.38
2018-02-18T03:51:57.134Z,11.07
2018-02-18T03:54:24.939Z,12.18
2018-02-18T03:56:52.788Z,10.77
2018-02-18T03:59:21.050Z,10.60
2018-02-18T04:01:48.875Z,10.82
2018-02-18T04:04:17.515Z,9.98
2018-02-18T04:06:45.386Z,11.32
2018-02-18T04:09:13.128Z,10.60
2018-02-18T04:11:41.068Z,10.32
2018-02-18T04:14:08.856Z,10.63
2018-02-18T04:16:37.267Z,11.93
2018-02-18T04:19:05.028Z,10.23
2018-02-18T04:21:32.816Z,10.23
2018-02-18T04:24:00.668Z,10.85
2018-02-18T04:26:28.778Z,11.85
2018-02-18T04:28:56.524Z,10.05
2018-02-18T04:31:24.356Z,10.82
2018-02-18T04:33:52.178Z,11.50
2018-02-18T04:36:19.967Z,11.07
2018-02-18T04:38:47.770Z,10.70
2018-02-18T04:41:15.573Z,10.65
2018-02-18T04:43:43.401Z,10.68
2018-02-18T04:46:11.208Z,11.27
2018-02-18T04:48:38.960Z,10.23
2018-02-18T04:51:06.753Z,11.20
2018-02-18T04:53:34.593Z,11.18
2018-02-18T04:56:02.376Z,13.02
2018-02-18T04:58:30.212Z,11.77
2018-02-18T05:00:58.824Z,13.70
2018-02-18T05:03:27.410Z,13.15
2018-02-18T05:05:55.556Z,13.05
2018-02-18T05:08:23.353Z,11.60
2018-02-18T05:10:51.226Z,10.80
2018-02-18T05:13:19.532Z,10.85
2018-02-18T05:15:47.340Z,11.20
2018-02-18T05:18:15.179Z,11.75
2018-02-18T05:20:42.986Z,12.07
2018-02-18T05:23:10.854Z,11.55
2018-02-18T05:25:39.109Z,10.82
2018-02-18T05:28:07.043Z,13.50
2018-02-18T05:30:35.849Z,12.50
2018-02-18T05:33:03.885Z,12.48
2018-02-18T05:35:31.804Z,11.95
2018-02-18T05:38:01.185Z,12.18
2018-02-18T05:40:29.051Z,12.95
2018-02-18T05:42:57.761Z,11.85
2018-02-18T05:45:25.706Z,13.50
2018-02-18T05:47:53.607Z,12.05
2018-02-18T05:50:21.411Z,12.98
2018-02-18T05:52:50.107Z,13.60
2018-02-18T05:55:17.929Z,11.82
2018-02-18T05:57:45.922Z,13.43
2018-02-18T06:00:13.786Z,12.30
2018-02-18T06:02:41.630Z,12.25
2018-02-18T06:05:09.434Z,12.68
2018-02-18T06:07:37.299Z,12.63
2018-02-18T06:10:05.217Z,12.93
2018-02-18T06:12:33.154Z,12.93
2018-02-18T06:15:00.977Z,12.85
2018-02-18T06:17:28.778Z,12.18
2018-02-18T06:19:56.648Z,11.98
2018-02-18T06:22:24.451Z,12.65
2018-02-18T06:24:52.332Z,11.88
2018-02-18T06:27:20.170Z,12.63
2018-02-18T06:29:48.102Z,12.35
2018-02-18T06:32:15.997Z,13.40
2018-02-18T06:34:43.873Z,12.18
2018-02-18T06:37:11.805Z,12.05
2018-02-18T06:39:39.721Z,12.90
2018-02-18T06:42:07.669Z,13.65
2018-02-18T06:44:36.644Z,12.55
2018-02-18T06:47:04.619Z,13.55
2018-02-18T06:49:32.665Z,14.85
2018-02-18T06:52:00.566Z,13.93
2018-02-18T06:54:28.672Z,15.45
2018-02-18T06:56:56.722Z,14.02
2018-02-18T06:59:24.753Z,13.55
2018-02-18T07:01:52.698Z,13.90
2018-02-18T07:04:20.629Z,14.50
2018-02-18T07:06:48.488Z,14.40
2018-02-18T07:09:16.376Z,13.38
2018-02-18T07:11:44.593Z,12.68
2018-02-18T07:14:13.585Z,14.15
2018-02-18T07:16:41.560Z,14.93
2018-02-18T07:19:09.406Z,14.38
2018-02-18T07:21:37.251Z,15.38
2018-02-18T07:24:05.255Z,15.43
2018-02-18T07:26:33.163Z,13.52
2018-02-18T07:29:01.038Z,14.45
2018-02-18T07:31:29.194Z,14.45
2018-02-18T07:33:57.179Z,14.45
2018-02-18T07:36:25.702Z,14.40
2018-02-18T07:38:53.720Z,14.90
2018-02-18T07:41:21.620Z,13.93
2018-02-18T07:43:49.449Z,14.77
2018-02-18T07:46:17.215Z,16.10
2018-02-18T07:48:45.130Z,14.95
2018-02-18T07:51:13.057Z,15.27
2018-02-18T07:53:41.748Z,15.75
2018-02-18T07:56:09.576Z,16.87
2018-02-18T07:58:37.628Z,15.38
2018-02-18T08:01:05.612Z,15.98
2018-02-18T08:03:33.526Z,13.95
2018-02-18T08:06:01.702Z,15.45
2018-02-18T08:08:29.979Z,16.25
2018-02-18T08:10:57.932Z,17.62
2018-02-18T08:13:25.871Z,16.52
2018-02-18T08:15:53.816Z,17.08
2018-02-18T08:18:21.847Z,16.80
2018-02-18T08:20:49.835Z,16.95
2018-02-18T08:23:18.615Z,17.55
2018-02-18T08:25:47.217Z,15.55
2018-02-18T08:28:15.132Z,16.50
2018-02-18T08:30:42.991Z,19.23
2018-02-18T08:33:10.815Z,17.77
2018-02-18T08:35:39.460Z,17.80
2018-02-18T08:38:07.426Z,17.75
2018-02-18T08:40:35.285Z,15.77
2018-02-18T08:43:03.101Z,16.27
2018-02-18T08:45:30.984Z,17.08
2018-02-18T08:47:58.876Z,17.75
2018-02-18T08:50:26.760Z,16.75
2018-02-18T08:52:54.508Z,18.42
2018-02-18T08:55:22.313Z,16.87
2018-02-18T08:57:50.113Z,17.25
2018-02-18T09:00:18.168Z,16.65
2018-02-18T09:02:46.033Z,17.35
2018-02-18T09:05:13.885Z,17.05
2018-02-18T09:07:41.687Z,16.55
2018-02-18T09:10:09.551Z,16.00
2018-02-18T09:12:37.707Z,17.37
2018-02-18T09:15:05.786Z,18.37
2018-02-18T09:17:33.557Z,17.05
2018-02-18T09:20:02.243Z,16.15
2018-02-18T09:22:30.103Z,19.58
2018-02-18T09:24:58.045Z,17.77
2018-02-18T09:27:25.977Z,18.05
2018-02-18T09:29:53.866Z,22.15
2018-02-18T09:32:21.689Z,18.67
2018-02-18T09:34:49.566Z,16.45
2018-02-18T09:37:17.429Z,17.33
2018-02-18T09:39:45.537Z,17.25
2018-02-18T09:42:13.333Z,16.73
2018-02-18T09:44:41.167Z,19.27
2018-02-18T09:47:08.880Z,17.15
2018-02-18T09:49:36.606Z,17.95
2018-02-18T09:52:04.554Z,18.12
2018-02-18T09:54:32.370Z,15.25
2018-02-18T09:57:00.086Z,16.77
2018-02-18T09:59:27.838Z,17.27
2018-02-18T10:01:56.003Z,15.25
2018-02-18T10:04:23.750Z,17.25
2018-02-18T10:06:51.544Z,16.70
2018-02-18T10:09:32.595Z,16.95
2018-02-18T10:15:14.073Z,16.70
2018-02-18T10:17:41.670Z,16.60
2018-02-18T10:20:09.335Z,15.77
2018-02-18T10:22:36.946Z,17.27
2018-02-18T10:25:04.651Z,13.90
2018-02-18T10:27:32.252Z,16.40
2018-02-18T10:29:59.900Z,14.60
2018-02-18T10:32:27.559Z,20.57
2018-02-18T10:34:55.191Z,13.17
2018-02-18T10:37:22.855Z,13.07
2018-02-18T10:39:50.439Z,13.57
2018-02-18T10:42:18.041Z,13.23
2018-02-18T10:44:45.664Z,12.80
2018-02-18T10:47:13.296Z,13.50
2018-02-18T10:49:40.954Z,12.40
2018-02-18T10:52:08.591Z,13.00
2018-02-18T10:54:36.223Z,12.90
2018-02-18T10:57:03.839Z,11.90
2018-02-18T10:59:31.529Z,11.73
2018-02-18T11:01:59.152Z,16.43
2018-02-18T11:04:29.391Z,12.80
2018-02-18T11:06:57.017Z,12.00
2018-02-18T11:09:24.660Z,13.27
2018-02-18T11:11:52.307Z,13.40
2018-02-18T11:14:19.991Z,13.67
2018-02-18T11:16:47.619Z,14.80
2018-02-18T11:19:15.239Z,12.20
2018-02-18T11:21:42.890Z,12.23
2018-02-18T11:24:10.489Z,11.57
2018-02-18T11:26:38.128Z,12.93
2018-02-18T11:29:06.548Z,14.37
2018-02-18T11:31:34.208Z,17.20
2018-02-18T11:34:01.872Z,14.00
2018-02-18T11:36:29.515Z,11.57
2018-02-18T11:38:57.280Z,11.43
2018-02-18T11:41:24.931Z,10.90
2018-02-18T11:43:52.539Z,10.53
2018-02-18T11:46:20.186Z,8.00
2018-02-18T11:48:47.800Z,9.50
2018-02-18T11:51:15.432Z,9.83
2018-02-18T11:53:43.069Z,8.83
2018-02-18T11:56:10.707Z,9.40
2018-02-18T11:58:38.403Z,12.73
2018-02-18T12:01:06.040Z,10.30
2018-02-18T12:03:33.638Z,8.33
2018-02-18T12:06:01.292Z,10.43
2018-02-18T12:08:28.966Z,10.13
2018-02-18T12:10:56.619Z,11.30
2018-02-18T12:13:24.320Z,10.30
2018-02-18T12:15:51.968Z,12.03
2018-02-18T12:18:19.590Z,10.10
2018-02-18T12:20:47.240Z,9.70
2018-02-18T12:23:14.869Z,10.10
2018-02-18T12:25:42.738Z,9.27
2018-02-18T12:28:10.359Z,10.13
2018-02-18T12:30:38.027Z,9.63
2018-02-18T12:33:05.664Z,9.77
2018-02-18T12:35:34.394Z,9.53
2018-02-18T12:38:02.027Z,17.13
2018-02-18T12:40:30.379Z,10.40
2018-02-18T12:42:58.064Z,11.50
2018-02-18T12:45:25.739Z,10.67
2018-02-18T12:47:53.421Z,11.10
2018-02-18T12:50:21.066Z,9.60
2018-02-18T12:52:48.672Z,11.43
2018-02-18T12:55:16.318Z,9.10
2018-02-18T12:57:43.976Z,7.23
2018-02-18T13:00:12.401Z,7.13
2018-02-18T13:02:40.046Z,9.00
2018-02-18T13:05:07.720Z,8.50
2018-02-18T13:07:35.398Z,6.70
2018-02-18T13:10:03.078Z,7.90
2018-02-18T13:12:30.666Z,7.37
2018-02-18T13:14:58.289Z,7.73
2018-02-18T13:17:25.920Z,7.20
2018-02-18T13:19:53.559Z,7.30
2018-02-18T13:22:21.185Z,8.57
2018-02-18T13:24:48.813Z,7.80
2018-02-18T13:27:16.411Z,8.00
2018-02-18T13:29:44.818Z,6.90
2018-02-18T13:32:12.443Z,6.33
2018-02-18T13:34:40.123Z,5.93
2018-02-18T13:37:07.711Z,7.47
2018-02-18T13:39:35.372Z,7.10
2018-02-18T13:42:02.964Z,6.73
2018-02-18T13:44:30.590Z,6.53
2018-02-18T13:46:58.203Z,6.47
2018-02-18T13:49:25.854Z,6.67
2018-02-18T13:51:53.571Z,7.50
2018-02-18T13:54:21.222Z,7.10
2018-02-18T13:56:48.828Z,7.50
2018-02-18T13:59:16.461Z,6.73
2018-02-18T14:01:44.019Z,7.97
2018-02-18T14:04:11.667Z,7.97
2018-02-18T14:06:39.275Z,10.07
2018-02-18T14:09:06.919Z,10.23
2018-02-18T14:11:34.522Z,8.43
2018-02-18T14:14:03.690Z,7.73
2018-02-18T14:16:31.340Z,7.80
2018-02-18T14:18:58.974Z,7.63
2018-02-18T14:21:26.911Z,8.00
2018-02-18T14:23:54.518Z,7.20
2018-02-18T14:26:22.170Z,6.90
2018-02-18T14:28:49.774Z,5.50
2018-02-18T14:31:17.410Z,6.77
2018-02-18T14:33:45.018Z,8.73
2018-02-18T14:36:12.679Z,8.70
2018-02-18T14:38:40.311Z,8.43
2018-02-18T14:41:07.934Z,10.10
2018-02-18T14:43:47.410Z,9.37
2018-02-18T14:46:26.806Z,9.93
2018-02-18T14:49:06.247Z,10.57
2018-02-18T14:51:45.632Z,8.77
2018-02-18T14:57:33.046Z,13.20
2018-02-18T15:00:00.674Z,11.17
2018-02-18T15:02:28.292Z,10.33
2018-02-18T15:04:55.927Z,11.43
2018-02-18T15:07:23.590Z,10.40
2018-02-18T15:09:51.212Z,10.03
2018-02-18T15:12:18.811Z,10.63
2018-02-18T15:14:46.458Z,10.40
2018-02-18T15:17:14.077Z,12.33
2018-02-18T15:19:41.707Z,16.07
2018-02-18T15:22:09.330Z,9.00
2018-02-18T15:24:36.972Z,9.63
2018-02-18T15:27:04.571Z,8.23
2018-02-18T15:29:32.179Z,9.53
2018-02-18T15:31:59.800Z,9.30
2018-02-18T15:34:27.395Z,10.03
2018-02-18T15:36:54.995Z,9.43
2018-02-18T15:39:22.651Z,8.87
2018-02-18T15:41:50.308Z,8.67
2018-02-18T15:44:18.005Z,10.00
2018-02-18T15:46:45.654Z,8.33
2018-02-18T15:49:13.306Z,8.20
2018-02-18T15:51:40.953Z,8.83
2018-02-18T15:54:08.556Z,8.93
2018-02-18T15:56:36.204Z,8.77
2018-02-18T15:59:03.828Z,7.53
2018-02-18T16:01:31.502Z,8.17
2018-02-18T16:03:59.269Z,8.07
2018-02-18T16:06:27.035Z,9.20
2018-02-18T16:08:54.625Z,8.20
2018-02-18T16:11:22.332Z,8.40
2018-02-18T16:13:49.919Z,8.77
2018-02-18T16:16:17.556Z,8.90
2018-02-18T16:18:45.168Z,7.40
2018-02-18T16:21:12.791Z,8.47
2018-02-18T16:23:40.410Z,7.73
2018-02-18T16:26:08.055Z,8.70
2018-02-18T16:28:35.654Z,8.40
2018-02-18T16:31:03.272Z,7.57
2018-02-18T16:33:30.879Z,8.67
2018-02-18T16:35:58.510Z,8.07
2018-02-18T16:38:26.111Z,9.67
2018-02-18T16:40:53.795Z,8.93
2018-02-18T16:43:21.399Z,8.40
2018-02-18T16:45:49.063Z,9.80
2018-02-18T16:48:16.667Z,8.13
2018-02-18T16:50:44.309Z,9.47
2018-02-18T16:53:11.920Z,10.60
2018-02-18T16:55:39.571Z,10.23
2018-02-18T16:58:07.183Z,10.70
2018-02-18T17:00:34.810Z,9.27
2018-02-18T17:03:02.415Z,9.50
2018-02-18T17:05:30.040Z,9.27
2018-02-18T17:07:57.671Z,9.33
2018-02-18T17:10:25.321Z,11.83
2018-02-18T17:12:52.943Z,9.97
2018-02-18T17:15:20.594Z,12.17
2018-02-18T17:17:48.208Z,13.70
2018-02-18T17:20:15.873Z,14.77
2018-02-18T17:22:43.481Z,16.60
2018-02-18T17:25:11.228Z,12.03
2018-02-18T17:27:38.833Z,11.43
2018-02-18T17:30:06.446Z,11.27
2018-02-18T17:32:34.104Z,11.67
2018-02-18T17:35:01.758Z,13.43
2018-02-18T17:37:29.370Z,11.50
2018-02-18T17:39:57.075Z,11.00
2018-02-18T17:42:24.688Z,11.67
2018-02-18T17:44:52.354Z,12.40
2018-02-18T17:47:20.046Z,10.93
2018-02-18T17:49:47.701Z,11.63
2018-02-18T17:52:15.548Z,11.60
2018-02-18T17:54:43.167Z,11.70
2018-02-18T17:57:10.797Z,11.90
2018-02-18T17:59:38.414Z,12.83
2018-02-18T18:02:06.046Z,13.37
2018-02-18T18:04:33.668Z,13.47
2018-02-18T18:07:01.436Z,10.83
2018-02-18T18:09:29.034Z,10.50
2018-02-18T18:11:56.678Z,11.20
2018-02-18T18:14:24.285Z,12.27
2018-02-18T18:16:51.949Z,14.70
2018-02-18T18:19:19.555Z,19.70
2018-02-18T18:21:47.225Z,17.30
2018-02-18T18:24:14.808Z,34.97
2018-02-18T18:26:42.448Z,18.00
2018-02-18T18:29:10.064Z,16.20
2018-02-18T18:31:37.705Z,12.90
2018-02-18T18:34:05.311Z,10.90
2018-02-18T18:36:32.945Z,12.53
2018-02-18T18:39:00.555Z,12.77
2018-02-18T18:41:28.185Z,11.43
2018-02-18T18:43:55.820Z,11.90
2018-02-18T18:46:23.451Z,12.90
2018-02-18T18:48:51.075Z,11.03
2018-02-18T18:51:18.731Z,12.80
2018-02-18T18:53:46.343Z,13.60
2018-02-18T18:56:13.991Z,13.77
2018-02-18T18:58:41.598Z,14.40
2018-02-18T19:01:09.242Z,13.20
2018-02-18T19:03:36.851Z,11.93
2018-02-18T19:06:04.488Z,14.33
2018-02-18T19:08:32.100Z,12.83
2018-02-18T19:10:59.738Z,13.47
2018-02-18T19:13:27.335Z,13.00
2018-02-18T19:15:54.986Z,15.07
2018-02-18T19:18:22.657Z,13.57
2018-02-18T19:20:50.277Z,14.47
2018-02-18T19:23:17.889Z,13.80
2018-02-18T19:25:45.542Z,14.63
2018-02-18T19:28:13.139Z,15.77
2018-02-18T19:30:40.776Z,14.37
2018-02-18T19:33:08.395Z,14.07
2018-02-18T19:35:36.032Z,13.40
2018-02-18T19:38:03.667Z,13.97
2018-02-18T19:40:31.340Z,14.67
2018-02-18T19:42:58.951Z,14.57
2018-02-18T19:45:26.600Z,13.43
2018-02-18T19:47:54.221Z,15.43
2018-02-18T19:50:21.899Z,15.07
2018-02-18T19:52:49.550Z,13.93
2018-02-18T19:55:17.235Z,14.13
2018-02-18T19:57:44.850Z,14.23
2018-02-18T20:00:12.530Z,14.70
2018-02-18T20:02:40.146Z,15.47
2018-02-18T20:05:07.840Z,13.40
2018-02-18T20:07:35.469Z,15.20
2018-02-18T20:10:03.339Z,25.50
2018-02-18T20:12:30.983Z,19.90
2018-02-18T20:14:58.672Z,16.63
2018-02-18T20:17:26.287Z,14.63
2018-02-18T20:19:54.180Z,15.10
2018-02-18T20:22:21.783Z,16.37
2018-02-18T20:24:49.418Z,15.93
2018-02-18T20:27:17.205Z,17.27
2018-02-18T20:29:44.843Z,17.90
2018-02-18T20:32:12.474Z,16.10
2018-02-18T20:34:40.184Z,16.58
2018-02-18T20:37:08.021Z,16.50
2018-02-18T20:39:35.651Z,16.60
2018-02-18T20:42:03.317Z,17.37
2018-02-18T20:44:31.001Z,15.27
2018-02-18T20:46:58.700Z,15.85
2018-02-18T20:49:26.331Z,17.43
2018-02-18T20:51:53.973Z,16.43
2018-02-18T20:54:21.573Z,16.83
2018-02-18T20:56:49.226Z,17.07
2018-02-18T20:59:16.843Z,18.63
2018-02-18T21:01:44.513Z,18.77
2018-02-18T21:04:12.187Z,19.30
2018-02-18T21:06:39.848Z,15.37
2018-02-18T21:09:07.608Z,18.13
2018-02-18T21:11:35.253Z,14.80
2018-02-18T21:14:02.868Z,18.23
2018-02-18T21:16:30.492Z,15.97
2018-02-18T21:18:58.090Z,16.37
2018-02-18T21:21:25.827Z,17.75
2018-02-18T21:23:53.422Z,16.07
2018-02-18T21:26:21.078Z,15.77
2018-02-18T21:28:48.679Z,16.47
2018-02-18T21:31:16.339Z,13.70
2018-02-18T21:33:44.137Z,14.50
2018-02-18T21:36:11.750Z,16.40
2018-02-18T21:38:39.488Z,13.48
2018-02-18T21:41:07.156Z,15.57
2018-02-18T21:43:34.920Z,14.77
2018-02-18T21:46:02.584Z,15.88
2018-02-18T21:48:30.296Z,14.25
2018-02-18T21:50:58.018Z,16.10
2018-02-18T21:53:25.682Z,14.80
2018-02-18T21:55:53.363Z,15.98
2018-02-18T21:58:21.111Z,15.90
2018-02-18T22:00:48.866Z,15.05
2018-02-18T22:03:16.578Z,16.12
2018-02-18T22:05:44.303Z,15.35
2018-02-18T22:08:12.095Z,16.15
2018-02-18T22:10:39.816Z,15.85
2018-02-18T22:13:07.634Z,14.73
2018-02-18T22:15:35.320Z,14.25
2018-02-18T22:18:03.055Z,15.32
2018-02-18T22:20:30.778Z,16.45
2018-02-18T22:22:58.648Z,14.93
2018-02-18T22:25:26.415Z,15.30
2018-02-18T22:27:54.224Z,15.68
2018-02-18T22:30:22.130Z,15.90
2018-02-18T22:32:49.965Z,15.57
2018-02-18T22:35:17.704Z,14.63
2018-02-18T22:37:45.532Z,14.93
2018-02-18T22:40:13.248Z,16.13
2018-02-18T22:42:40.920Z,16.33
2018-02-18T22:45:08.599Z,15.75
2018-02-18T22:47:36.230Z,15.47
2018-02-18T22:50:03.927Z,15.55
2018-02-18T22:52:31.570Z,16.03
2018-02-18T22:54:59.171Z,15.97
2018-02-18T22:57:26.789Z,15.13
2018-02-18T22:59:54.394Z,15.13
2018-02-18T23:02:22.035Z,15.47
2018-02-18T23:04:49.735Z,16.95
2018-02-18T23:07:17.557Z,16.25
2018-02-18T23:09:45.147Z,17.00
2018-02-18T23:12:12.779Z,16.30
2018-02-18T23:14:40.471Z,17.62
2018-02-18T23:17:08.190Z,17.12
2018-02-18T23:19:35.865Z,18.58
2018-02-18T23:22:03.624Z,17.33
2018-02-18T23:24:31.303Z,17.27
2018-02-18T23:26:59.055Z,18.30
2018-02-18T23:29:26.742Z,17.48
2018-02-18T23:31:54.459Z,17.35
2018-02-18T23:34:22.122Z,17.90
2018-02-18T23:36:49.818Z,18.23
2018-02-18T23:39:17.614Z,18.52
2018-02-18T23:41:45.289Z,16.90
2018-02-18T23:44:13.004Z,16.42
2018-02-18T23:46:40.699Z,17.52
2018-02-18T23:49:08.419Z,19.25
2018-02-18T23:51:36.099Z,18.27
2018-02-18T23:54:03.855Z,15.95
2018-02-18T23:56:31.534Z,18.40
2018-02-18T23:58:59.268Z,17.12
